createdAt,value
2023-04-07T00:00:28.268Z,95443.06
2023-04-07T00:02:56.004Z,95443.59
2023-04-07T00:05:22.958Z,95439.84
2023-04-07T00:07:56.357Z,95443.59
2023-04-07T00:10:25.325Z,95442.50
2023-04-07T00:12:52.497Z,95438.50
2023-04-07T00:15:19.232Z,95439.84
2023-04-07T00:17:45.876Z,95435.78
2023-04-07T00:20:12.718Z,95437.94
2023-04-07T00:22:39.289Z,95431.78
2023-04-07T00:25:06.595Z,95431.25
2023-04-07T00:27:33.195Z,95435.53
2023-04-07T00:29:59.918Z,95431.22
2023-04-07T00:32:26.528Z,95431.22
2023-04-07T00:34:53.215Z,95431.50
2023-04-07T00:37:20.055Z,95426.41
2023-04-07T00:39:46.691Z,95424.81
2023-04-07T00:42:13.569Z,95421.31
2023-04-07T00:44:40.500Z,95423.97
2023-04-07T00:47:07.149Z,95418.88
2023-04-07T00:49:33.961Z,95410.84
2023-04-07T00:52:01.300Z,95415.16
2023-04-07T00:54:28.002Z,95418.88
2023-04-07T00:56:54.760Z,95417.84
2023-04-07T00:59:21.917Z,95409.25
2023-04-07T01:02:07.354Z,95411.94
2023-04-07T01:04:59.075Z,95418.09
2023-04-07T01:07:35.619Z,95405.75
2023-04-07T01:10:14.966Z,95404.69
2023-04-07T01:12:59.938Z,95400.94
2023-04-07T01:15:30.203Z,95398.00
2023-04-07T01:18:06.566Z,95395.84
2023-04-07T01:20:34.780Z,95395.59
2023-04-07T01:23:05.782Z,95394.53
2023-04-07T01:26:04.345Z,95396.94
2023-04-07T01:28:55.963Z,95392.66
2023-04-07T01:31:23.528Z,95394.25
2023-04-07T01:33:51.519Z,95384.06
2023-04-07T01:36:18.632Z,95401.78
2023-04-07T01:38:46.143Z,95391.06
2023-04-07T01:41:15.559Z,95392.63
2023-04-07T01:43:45.145Z,95399.63
2023-04-07T01:46:12.466Z,95393.19
2023-04-07T01:48:40.278Z,95386.75
2023-04-07T01:51:08.304Z,95392.91
2023-04-07T01:53:35.512Z,95391.06
2023-04-07T01:56:02.120Z,95386.75
2023-04-07T01:58:30.161Z,95389.16
2023-04-07T02:00:57.331Z,95395.06
2023-04-07T02:03:30.438Z,95400.97
2023-04-07T02:06:03.046Z,95398.56
2023-04-07T02:08:32.801Z,95394.53
2023-04-07T02:11:02.092Z,95395.06
2023-04-07T02:13:34.291Z,95392.91
2023-04-07T02:16:02.275Z,95394.00
2023-04-07T02:18:31.426Z,95389.97
2023-04-07T02:21:00.823Z,95391.03
2023-04-07T02:23:28.029Z,95387.53
2023-04-07T02:25:57.821Z,95391.56
2023-04-07T02:28:24.390Z,95383.50
2023-04-07T02:30:50.955Z,95386.47
2023-04-07T02:33:17.615Z,95384.88
2023-04-07T02:35:44.267Z,95383.25
2023-04-07T02:38:10.831Z,95380.84
2023-04-07T02:40:37.598Z,95384.59
2023-04-07T02:43:04.173Z,95383.78
2023-04-07T02:45:31.247Z,95370.66
2023-04-07T02:47:57.874Z,95375.22
2023-04-07T02:50:24.491Z,95376.00
2023-04-07T02:52:51.203Z,95372.53
2023-04-07T02:55:17.970Z,95369.06
2023-04-07T02:57:44.753Z,95369.84
2023-04-07T03:00:31.405Z,95367.19
2023-04-07T03:03:07.345Z,95370.66
2023-04-07T03:05:37.076Z,95366.91
2023-04-07T03:08:05.244Z,95372.28
2023-04-07T03:10:32.292Z,95370.13
2023-04-07T03:12:58.895Z,95363.69
2023-04-07T03:15:25.791Z,95360.75
2023-04-07T03:17:52.546Z,95365.84
2023-04-07T03:20:20.244Z,95353.25
2023-04-07T03:22:47.003Z,95356.19
2023-04-07T03:25:20.727Z,95358.31
2023-04-07T03:27:48.682Z,95348.41
2023-04-07T03:30:15.697Z,95356.72
2023-04-07T03:32:44.135Z,95350.84
2023-04-07T03:35:11.087Z,95344.94
2023-04-07T03:37:38.001Z,95356.72
2023-04-07T03:40:08.682Z,95351.91
2023-04-07T03:42:36.165Z,95349.75
2023-04-07T03:45:06.751Z,95346.53
2023-04-07T03:47:35.250Z,95346.78
2023-04-07T03:50:04.523Z,95343.31
2023-04-07T03:52:36.166Z,95345.44
2023-04-07T03:55:11.862Z,95345.97
2023-04-07T03:57:40.442Z,95350.53
2023-04-07T04:00:08.243Z,95350.78
2023-04-07T04:02:43.188Z,95340.34
2023-04-07T04:05:13.908Z,95343.78
2023-04-07T04:07:40.741Z,95344.59
2023-04-07T04:10:08.432Z,95349.69
2023-04-07T04:12:40.720Z,95335.16
2023-04-07T04:15:10.573Z,95339.19
2023-04-07T04:17:38.213Z,95337.78
2023-04-07T04:20:06.486Z,95341.50
2023-04-07T04:22:43.029Z,95345.75
2023-04-07T04:25:09.950Z,95341.91
2023-04-07T04:27:36.837Z,95343.75
2023-04-07T04:30:14.823Z,95333.75
2023-04-07T04:32:49.261Z,95337.19
2023-04-07T04:35:19.283Z,95333.09
2023-04-07T04:38:01.145Z,95335.19
2023-04-07T04:40:27.984Z,95336.50
2023-04-07T04:42:54.887Z,95337.25
2023-04-07T04:45:22.850Z,95341.22
2023-04-07T04:47:50.212Z,95342.78
2023-04-07T04:50:17.302Z,95341.94
2023-04-07T04:52:46.031Z,95328.16
2023-04-07T04:55:19.499Z,95334.84
2023-04-07T04:57:46.855Z,95331.00
2023-04-07T05:00:18.477Z,95336.84
2023-04-07T05:02:48.206Z,95331.16
2023-04-07T05:05:15.440Z,95327.06
2023-04-07T05:07:43.361Z,95334.81
2023-04-07T05:10:12.791Z,95324.78
2023-04-07T05:12:46.133Z,95326.06
2023-04-07T05:15:12.726Z,95326.53
2023-04-07T05:17:40.126Z,95318.41
2023-04-07T05:20:10.955Z,95324.50
2023-04-07T05:22:40.683Z,95313.16
2023-04-07T05:25:10.580Z,95320.38
2023-04-07T05:27:38.362Z,95320.16
2023-04-07T05:30:10.945Z,95321.94
2023-04-07T05:32:37.759Z,95319.44
2023-04-07T05:35:11.718Z,95321.56
2023-04-07T05:37:47.050Z,95318.31
2023-04-07T05:40:13.853Z,95324.44
2023-04-07T05:42:40.450Z,95317.94
2023-04-07T05:45:08.481Z,95313.88
2023-04-07T05:47:38.978Z,95321.38
2023-04-07T05:50:06.169Z,95312.72
2023-04-07T05:52:36.322Z,95315.63
2023-04-07T05:55:14.442Z,95312.44
2023-04-07T05:57:41.562Z,95312.56
2023-04-07T06:00:09.662Z,95322.19
2023-04-07T06:02:41.257Z,95306.25
2023-04-07T06:05:13.833Z,95302.66
2023-04-07T06:07:40.843Z,95308.31
2023-04-07T06:10:08.777Z,95311.22
2023-04-07T06:12:35.345Z,95301.44
2023-04-07T06:15:02.075Z,95311.63
2023-04-07T06:17:28.821Z,95309.19
2023-04-07T06:19:55.676Z,95297.50
2023-04-07T06:22:22.286Z,95300.41
2023-04-07T06:24:48.857Z,95302.25
2023-04-07T06:27:15.624Z,95305.13
2023-04-07T06:29:42.195Z,95303.19
2023-04-07T06:32:09.606Z,95303.09
2023-04-07T06:34:36.353Z,95305.69
2023-04-07T06:37:02.958Z,95299.13
2023-04-07T06:39:30.573Z,95305.22
2023-04-07T06:41:57.165Z,95300.25
2023-04-07T06:44:23.944Z,95296.69
2023-04-07T06:46:50.513Z,95306.28
2023-04-07T06:49:17.158Z,95299.19
2023-04-07T06:51:43.704Z,95298.53
2023-04-07T06:54:10.310Z,95291.13
2023-04-07T06:56:36.886Z,95293.41
2023-04-07T06:59:03.463Z,95286.81
2023-04-07T07:01:30.284Z,95281.31
2023-04-07T07:03:57.099Z,95284.44
2023-04-07T07:06:23.894Z,95289.94
2023-04-07T07:08:50.475Z,95284.66
2023-04-07T07:11:17.024Z,95290.16
2023-04-07T07:13:43.620Z,95285.94
2023-04-07T07:16:10.168Z,95284.44
2023-04-07T07:18:36.716Z,95279.94
2023-04-07T07:21:03.395Z,95274.28
2023-04-07T07:23:30.249Z,95271.19
2023-04-07T07:25:56.968Z,95269.84
2023-04-07T07:28:23.699Z,95272.31
2023-04-07T07:30:50.321Z,95269.69
2023-04-07T07:33:16.903Z,95281.06
2023-04-07T07:35:43.516Z,95281.91
2023-04-07T07:38:10.155Z,95274.19
2023-04-07T07:40:36.699Z,95272.34
2023-04-07T07:43:03.384Z,95275.09
2023-04-07T07:45:30.075Z,95277.03
2023-04-07T07:47:56.758Z,95277.91
2023-04-07T07:50:23.651Z,95276.03
2023-04-07T07:52:50.216Z,95276.69
2023-04-07T07:55:16.790Z,95279.47
2023-04-07T07:57:43.490Z,95281.41
2023-04-07T08:00:10.707Z,95279.84
2023-04-07T08:02:40.189Z,95280.53
2023-04-07T08:05:07.570Z,95277.06
2023-04-07T08:07:34.346Z,95285.84
2023-04-07T08:10:00.944Z,95276.44
2023-04-07T08:12:27.655Z,95284.44
2023-04-07T08:14:54.238Z,95277.75
2023-04-07T08:17:20.803Z,95281.44
2023-04-07T08:19:47.509Z,95280.81
2023-04-07T08:22:14.314Z,95284.16
2023-04-07T08:24:40.892Z,95278.09
2023-04-07T08:27:07.459Z,95280.69
2023-04-07T08:29:34.047Z,95280.84
2023-04-07T08:32:00.696Z,95279.41
2023-04-07T08:34:27.345Z,95280.38
2023-04-07T08:36:53.936Z,95276.72
2023-04-07T08:39:20.490Z,95276.56
2023-04-07T08:41:47.505Z,95275.75
2023-04-07T08:44:15.239Z,95270.66
2023-04-07T08:46:43.365Z,95270.19
2023-04-07T08:49:11.825Z,95267.78
2023-04-07T08:51:42.692Z,95272.44
2023-04-07T08:54:13.826Z,95264.25
2023-04-07T08:56:42.100Z,95269.53
2023-04-07T08:59:11.374Z,95268.38
2023-04-07T09:01:39.276Z,95270.78
2023-04-07T09:04:07.169Z,95262.28
2023-04-07T09:06:34.515Z,95267.03
2023-04-07T09:09:02.346Z,95263.34
2023-04-07T09:11:30.300Z,95261.38
2023-04-07T09:13:57.150Z,95260.22
2023-04-07T09:16:23.897Z,95248.19
2023-04-07T09:18:50.558Z,95253.56
2023-04-07T09:21:17.119Z,95258.19
2023-04-07T09:23:43.753Z,95257.84
2023-04-07T09:26:26.648Z,95254.47
2023-04-07T09:28:54.273Z,95256.19
2023-04-07T09:31:21.298Z,95247.69
2023-04-07T09:33:49.707Z,95247.19
2023-04-07T09:36:16.535Z,95247.31
2023-04-07T09:38:44.364Z,95246.53
2023-04-07T09:41:13.643Z,95243.19
2023-04-07T09:43:45.293Z,95235.66
2023-04-07T09:46:20.110Z,95242.34
2023-04-07T09:48:46.906Z,95236.38
2023-04-07T09:51:15.841Z,95237.75
2023-04-07T09:53:50.599Z,95234.66
2023-04-07T09:56:20.080Z,95224.84
2023-04-07T09:58:47.373Z,95228.59
2023-04-07T10:01:15.846Z,95225.22
2023-04-07T10:03:42.864Z,95222.34
2023-04-07T10:06:09.709Z,95218.94
2023-04-07T10:08:38.316Z,95217.13
2023-04-07T10:11:06.024Z,95216.00
2023-04-07T10:13:34.607Z,95215.19
2023-04-07T10:16:05.200Z,95219.19
2023-04-07T10:18:35.968Z,95211.81
2023-04-07T10:21:07.820Z,95214.41
2023-04-07T10:24:09.223Z,95219.94
2023-04-07T10:26:40.620Z,95219.75
2023-04-07T10:29:12.280Z,95217.69
2023-04-07T10:31:39.705Z,95220.91
2023-04-07T10:34:06.347Z,95214.00
2023-04-07T10:36:32.964Z,95215.75
2023-04-07T10:39:08.641Z,95216.69
2023-04-07T10:41:39.916Z,95215.78
2023-04-07T10:44:08.618Z,95212.78
2023-04-07T10:46:46.945Z,95214.63
2023-04-07T10:49:15.115Z,95213.50
2023-04-07T10:51:43.296Z,95217.88
2023-04-07T10:54:16.493Z,95210.50
2023-04-07T10:57:08.913Z,95204.59
2023-04-07T10:59:36.366Z,95201.63
2023-04-07T11:02:31.072Z,95204.25
2023-04-07T11:04:57.876Z,95198.69
2023-04-07T11:07:44.723Z,95191.28
2023-04-07T11:10:12.603Z,95189.00
2023-04-07T11:12:39.145Z,95192.28
2023-04-07T11:15:19.461Z,95185.53
2023-04-07T11:17:46.211Z,95184.72
2023-04-07T11:20:12.814Z,95183.28
2023-04-07T11:22:39.388Z,95185.38
2023-04-07T11:25:20.973Z,95190.31
2023-04-07T11:27:47.592Z,95182.97
2023-04-07T11:30:16.072Z,95181.63
2023-04-07T11:32:42.698Z,95179.00
2023-04-07T11:35:09.739Z,95189.25
2023-04-07T11:37:36.306Z,95182.19
2023-04-07T11:40:03.041Z,95181.84
2023-04-07T11:42:38.135Z,95179.00
2023-04-07T11:45:07.745Z,95176.25
2023-04-07T11:47:36.482Z,95179.66
2023-04-07T11:50:03.417Z,95178.06
2023-04-07T11:52:41.496Z,95177.34
2023-04-07T11:55:16.596Z,95169.06
2023-04-07T11:57:43.274Z,95170.84
2023-04-07T12:00:11.849Z,95164.34
2023-04-07T12:02:38.930Z,95160.78
2023-04-07T12:05:06.752Z,95162.66
2023-04-07T12:07:33.475Z,95158.88
2023-04-07T12:10:18.540Z,95163.53
2023-04-07T12:12:46.157Z,95159.22
2023-04-07T12:15:13.013Z,95161.63
2023-04-07T12:17:45.319Z,95159.22
2023-04-07T12:20:12.236Z,95149.00
2023-04-07T12:22:39.160Z,95160.00
2023-04-07T12:25:06.259Z,95153.50
2023-04-07T12:27:42.254Z,95162.50
2023-04-07T12:30:10.391Z,95157.84
2023-04-07T12:32:37.037Z,95161.78
2023-04-07T12:35:03.766Z,95165.53
2023-04-07T12:37:30.328Z,95158.22
2023-04-07T12:39:56.900Z,95163.19
2023-04-07T12:42:23.454Z,95155.72
2023-04-07T12:44:50.098Z,95150.53
2023-04-07T12:47:16.695Z,95154.44
2023-04-07T12:49:43.274Z,95153.75
2023-04-07T12:52:09.872Z,95141.81
2023-04-07T12:54:36.515Z,95143.31
2023-04-07T12:57:03.112Z,95150.53
2023-04-07T12:59:29.662Z,95147.19
2023-04-07T13:01:56.382Z,95156.09
2023-04-07T13:04:23.189Z,95154.53
2023-04-07T13:06:49.995Z,95154.59
2023-04-07T13:09:16.661Z,95155.59
2023-04-07T13:11:43.233Z,95159.81
2023-04-07T13:14:09.780Z,95160.00
2023-04-07T13:16:36.501Z,95153.09
2023-04-07T13:19:03.113Z,95160.09
2023-04-07T13:21:45.326Z,95156.13
2023-04-07T13:24:13.107Z,95157.88
2023-04-07T13:26:39.672Z,95157.28
2023-04-07T13:29:06.212Z,95158.34
2023-04-07T13:31:32.779Z,95151.34
2023-04-07T13:33:59.326Z,95157.97
2023-04-07T13:36:25.963Z,95160.72
2023-04-07T13:38:52.551Z,95155.41
2023-04-07T13:41:19.189Z,95147.91
2023-04-07T13:43:45.790Z,95154.19
2023-04-07T13:46:27.066Z,95138.84
2023-04-07T13:48:54.846Z,95148.53
2023-04-07T13:51:21.409Z,95147.63
2023-04-07T13:53:48.228Z,95143.47
2023-04-07T13:56:15.120Z,95139.06
2023-04-07T13:58:41.751Z,95148.13
2023-04-07T14:01:08.392Z,95149.16
2023-04-07T14:03:35.022Z,95149.22
2023-04-07T14:06:02.588Z,95150.97
2023-04-07T14:08:29.196Z,95150.44
2023-04-07T14:10:55.805Z,95151.47
2023-04-07T14:13:22.590Z,95146.28
2023-04-07T14:15:50.324Z,95149.78
2023-04-07T14:18:17.007Z,95148.88
2023-04-07T14:20:43.544Z,95155.84
2023-04-07T14:23:10.184Z,95155.16
2023-04-07T14:25:36.758Z,95146.66
2023-04-07T14:28:03.370Z,95146.34
2023-04-07T14:30:29.972Z,95153.41
2023-04-07T14:32:56.811Z,95148.00
2023-04-07T14:35:23.479Z,95145.16
2023-04-07T14:37:50.127Z,95154.13
2023-04-07T14:40:16.693Z,95163.00
2023-04-07T14:42:43.238Z,95155.50
2023-04-07T14:45:10.240Z,95161.50
2023-04-07T14:47:36.969Z,95154.00
2023-04-07T14:50:03.675Z,95155.63
2023-04-07T14:52:30.227Z,95152.97
2023-04-07T14:54:57.906Z,95158.44
2023-04-07T14:57:26.259Z,95158.09
2023-04-07T14:59:52.976Z,95162.09
2023-04-07T15:02:19.651Z,95161.41
2023-04-07T15:04:46.600Z,95163.22
2023-04-07T15:07:13.225Z,95159.59
2023-04-07T15:09:39.818Z,95160.75
2023-04-07T15:12:06.409Z,95166.66
2023-04-07T15:14:32.969Z,95162.09
2023-04-07T15:16:59.611Z,95166.75
2023-04-07T15:19:26.187Z,95164.25
2023-04-07T15:21:53.029Z,95165.94
2023-04-07T15:24:19.608Z,95169.81
2023-04-07T15:26:46.375Z,95173.69
2023-04-07T15:29:13.032Z,95174.25
2023-04-07T15:31:39.650Z,95171.09
2023-04-07T15:34:06.220Z,95180.28
2023-04-07T15:36:32.882Z,95176.63
2023-04-07T15:39:06.086Z,95178.69
2023-04-07T15:41:33.570Z,95187.19
2023-04-07T15:44:01.051Z,95183.25
2023-04-07T15:46:28.165Z,95181.28
2023-04-07T15:48:55.392Z,95180.75
2023-04-07T15:51:22.040Z,95179.03
2023-04-07T15:53:48.811Z,95178.44
2023-04-07T15:56:15.672Z,95174.69
2023-04-07T15:58:42.338Z,95179.56
2023-04-07T16:01:09.145Z,95194.31
2023-04-07T16:03:35.996Z,95185.22
2023-04-07T16:06:02.666Z,95196.00
2023-04-07T16:08:29.192Z,95201.00
2023-04-07T16:10:55.935Z,95187.25
2023-04-07T16:13:22.598Z,95191.78
2023-04-07T16:15:49.234Z,95200.28
2023-04-07T16:18:15.923Z,95200.84
2023-04-07T16:20:42.561Z,95196.66
2023-04-07T16:23:09.327Z,95195.28
2023-04-07T16:25:35.967Z,95211.47
2023-04-07T16:28:02.590Z,95206.03
2023-04-07T16:30:29.226Z,95212.81
2023-04-07T16:32:55.842Z,95214.63
2023-04-07T16:35:22.588Z,95213.41
2023-04-07T16:37:49.184Z,95214.75
2023-04-07T16:40:15.887Z,95213.34
2023-04-07T16:42:42.598Z,95213.22
2023-04-07T16:45:09.588Z,95222.38
2023-04-07T16:47:38.056Z,95224.66
2023-04-07T16:50:05.238Z,95225.16
2023-04-07T16:52:32.336Z,95232.06
2023-04-07T16:54:59.616Z,95225.22
2023-04-07T16:57:26.252Z,95227.81
2023-04-07T16:59:52.898Z,95223.81
2023-04-07T17:02:20.097Z,95234.25
2023-04-07T17:04:46.898Z,95233.75
2023-04-07T17:07:13.835Z,95233.31
2023-04-07T17:09:40.424Z,95233.97
2023-04-07T17:12:07.174Z,95241.00
2023-04-07T17:14:34.191Z,95246.44
2023-04-07T17:17:01.496Z,95249.16
2023-04-07T17:19:28.356Z,95250.28
2023-04-07T17:21:54.912Z,95250.16
2023-04-07T17:24:22.693Z,95257.03
2023-04-07T17:26:49.442Z,95250.69
2023-04-07T17:29:16.976Z,95251.78
2023-04-07T17:31:43.885Z,95260.59
2023-04-07T17:34:10.937Z,95260.78
2023-04-07T17:36:37.710Z,95257.44
2023-04-07T17:39:05.064Z,95261.97
2023-04-07T17:41:34.750Z,95263.59
2023-04-07T17:44:01.455Z,95262.19
2023-04-07T17:46:28.203Z,95272.41
2023-04-07T17:48:54.827Z,95272.94
2023-04-07T17:51:21.441Z,95273.75
2023-04-07T17:53:48.209Z,95280.81
2023-04-07T17:56:14.921Z,95286.28
2023-04-07T17:58:41.553Z,95290.56
2023-04-07T18:01:09.646Z,95290.56
2023-04-07T18:03:36.676Z,95295.72
2023-04-07T18:06:03.874Z,95292.53
2023-04-07T18:08:30.523Z,95298.44
2023-04-07T18:10:57.120Z,95303.53
2023-04-07T18:13:23.671Z,95294.63
2023-04-07T18:15:50.392Z,95304.34
2023-04-07T18:18:17.075Z,95307.03
2023-04-07T18:20:43.753Z,95312.16
2023-04-07T18:23:10.354Z,95321.09
2023-04-07T18:25:36.937Z,95315.31
2023-04-07T18:28:03.511Z,95316.59
2023-04-07T18:30:30.094Z,95317.06
2023-04-07T18:32:56.682Z,95320.72
2023-04-07T18:35:23.462Z,95326.28
2023-04-07T18:37:50.020Z,95319.88
2023-04-07T18:40:16.651Z,95330.88
2023-04-07T18:42:43.366Z,95336.13
2023-04-07T18:45:10.273Z,95342.19
2023-04-07T18:47:37.072Z,95343.91
2023-04-07T18:50:04.095Z,95342.63
2023-04-07T18:52:30.656Z,95354.09
2023-04-07T18:54:57.251Z,95355.81
2023-04-07T18:57:23.853Z,95355.34
2023-04-07T18:59:50.490Z,95350.53
2023-04-07T19:02:17.244Z,95356.28
2023-04-07T19:04:43.903Z,95352.75
2023-04-07T19:07:10.491Z,95360.41
2023-04-07T19:09:37.103Z,95358.81
2023-04-07T19:12:03.902Z,95354.50
2023-04-07T19:14:30.506Z,95359.91
2023-04-07T19:16:57.210Z,95360.97
2023-04-07T19:19:23.764Z,95367.84
2023-04-07T19:21:50.432Z,95367.03
2023-04-07T19:24:17.077Z,95370.03
2023-04-07T19:26:43.669Z,95374.66
2023-04-07T19:29:10.226Z,95375.47
2023-04-07T19:31:36.881Z,95381.69
2023-04-07T19:34:03.696Z,95376.28
2023-04-07T19:36:30.759Z,95374.38
2023-04-07T19:38:57.354Z,95381.69
2023-04-07T19:41:24.160Z,95385.19
2023-04-07T19:43:50.796Z,95384.09
2023-04-07T19:46:17.588Z,95394.63
2023-04-07T19:48:44.275Z,95389.22
2023-04-07T19:51:10.871Z,95400.56
2023-04-07T19:53:37.548Z,95397.84
2023-04-07T19:56:04.120Z,95397.53
2023-04-07T19:58:32.731Z,95395.13
2023-04-07T20:00:59.438Z,95397.84
2023-04-07T20:03:26.296Z,95395.13
2023-04-07T20:05:53.043Z,95399.78
2023-04-07T20:08:22.336Z,95398.91
2023-04-07T20:10:50.984Z,95405.47
2023-04-07T20:13:17.564Z,95403.06
2023-04-07T20:15:44.174Z,95409.59
2023-04-07T20:18:10.873Z,95397.13
2023-04-07T20:20:37.509Z,95409.09
2023-04-07T20:23:04.266Z,95404.00
2023-04-07T20:25:30.869Z,95395.03
2023-04-07T20:27:57.445Z,95405.88
2023-04-07T20:30:24.091Z,95404.59
2023-04-07T20:32:50.814Z,95403.00
2023-04-07T20:35:17.810Z,95408.72
2023-04-07T20:37:44.459Z,95402.03
2023-04-07T20:40:11.876Z,95407.75
2023-04-07T20:42:38.845Z,95407.25
2023-04-07T20:45:05.763Z,95410.25
2023-04-07T20:47:32.626Z,95407.88
2023-04-07T20:49:59.226Z,95416.59
2023-04-07T20:52:25.813Z,95409.91
2023-04-07T20:54:52.530Z,95416.44
2023-04-07T20:57:19.181Z,95418.97
2023-04-07T20:59:45.734Z,95414.16
2023-04-07T21:02:12.428Z,95417.78
2023-04-07T21:04:39.075Z,95417.59
2023-04-07T21:07:05.816Z,95406.59
2023-04-07T21:09:32.493Z,95421.84
2023-04-07T21:11:59.107Z,95423.53
2023-04-07T21:14:25.654Z,95423.38
2023-04-07T21:16:52.365Z,95417.78
2023-04-07T21:19:18.980Z,95419.16
2023-04-07T21:21:45.511Z,95417.88
2023-04-07T21:24:12.083Z,95419.59
2023-04-07T21:26:38.732Z,95422.13
2023-04-07T21:29:05.339Z,95425.44
2023-04-07T21:31:32.794Z,95427.13
2023-04-07T21:33:59.420Z,95429.97
2023-04-07T21:36:25.999Z,95426.25
2023-04-07T21:38:52.760Z,95430.19
2023-04-07T21:41:19.477Z,95429.47
2023-04-07T21:43:46.024Z,95427.19
2023-04-07T21:46:12.657Z,95422.19
2023-04-07T21:48:39.324Z,95426.09
2023-04-07T21:51:05.953Z,95433.00
2023-04-07T21:53:32.598Z,95426.41
2023-04-07T21:55:59.159Z,95419.78
2023-04-07T21:58:25.731Z,95423.97
2023-04-07T22:00:53.188Z,95431.41
2023-04-07T22:03:20.050Z,95424.28
2023-04-07T22:05:46.702Z,95428.97
2023-04-07T22:08:13.293Z,95428.25
2023-04-07T22:10:39.874Z,95428.66
2023-04-07T22:13:06.534Z,95426.31
2023-04-07T22:15:33.160Z,95427.50
2023-04-07T22:17:59.756Z,95428.66
2023-04-07T22:20:26.447Z,95434.66
2023-04-07T22:22:53.150Z,95432.34
2023-04-07T22:25:19.944Z,95431.66
2023-04-07T22:27:46.539Z,95439.81
2023-04-07T22:30:13.196Z,95443.38
2023-04-07T22:32:39.972Z,95433.78
2023-04-07T22:35:06.765Z,95441.94
2023-04-07T22:37:33.692Z,95442.81
2023-04-07T22:40:00.380Z,95436.44
2023-04-07T22:42:27.164Z,95441.09
2023-04-07T22:44:53.746Z,95442.78
2023-04-07T22:47:21.316Z,95449.06
2023-04-07T22:49:48.280Z,95446.44
2023-04-07T22:52:14.860Z,95455.09
2023-04-07T22:54:41.438Z,95455.97
2023-04-07T22:57:08.145Z,95453.03
2023-04-07T22:59:34.851Z,95452.31
2023-04-07T23:02:01.455Z,95452.91
2023-04-07T23:04:28.037Z,95454.84
2023-04-07T23:06:54.715Z,95460.81
2023-04-07T23:09:21.374Z,95452.00
2023-04-07T23:11:48.019Z,95457.19
2023-04-07T23:14:15.381Z,95463.16
2023-04-07T23:16:41.995Z,95458.63
2023-04-07T23:19:08.611Z,95457.28
2023-04-07T23:21:35.145Z,95462.47
2023-04-07T23:24:01.804Z,95462.25
2023-04-07T23:26:28.465Z,95462.00
2023-04-07T23:28:55.186Z,95460.16
2023-04-07T23:31:21.742Z,95461.56
2023-04-07T23:33:48.433Z,95461.34
2023-04-07T23:36:15.201Z,95469.47
2023-04-07T23:38:41.978Z,95466.25
2023-04-07T23:41:08.655Z,95469.50
2023-04-07T23:43:35.390Z,95457.44
2023-04-07T23:46:02.112Z,95466.88
2023-04-07T23:48:28.921Z,95465.56
2023-04-07T23:50:55.447Z,95466.94
2023-04-07T23:53:21.985Z,95467.22
2023-04-07T23:55:49.273Z,95460.50
2023-04-07T23:58:16.031Z,95459.50
